Portada
METAR-TAF:

METAR-TAF

Aeropuertos :

Ermelo, Sudáfrica

latitud: 26-29-44S, longitud: 29-58-47E, altitud: 1737 m

Observación

El informe se hizo hace 5 horas y 3 minutos, a las 16:45 UTC
Viento 6 kt del este
Temperatura 14°C
Humedad 100%
Presión 1024 hPa
Visibilidad: 3000 m
Cielo cubierto a una altura de 600 ft
llovizna ligera, niebla en bancos,

METAR: FAEO 261645Z 08006KT 3000 -DZ BCFG OVC006 14/14 Q1024

Hora: 23:48 (21:48 UTC)


TAF: falta

Observaciones y pronósticos meteorológicos de más de 4000 aeropuertos (mensajes METAR y TAF).

Los puntos amarillos y rojos representan las estaciones disponibles.

Ponga el ratón en el punto deseado para ver el nombre de la estación.

Haga clic para ver las observaciones y los pronósticos meteorológicos.

Para cambiar el mapa : haga clic en los botones verdes con una cruz de color negro para hacer un zoom, en el botón verde con un guión para alejar o en las flechas verdes para mapas adyacentes.


METAR-TAF: